sensor_id;sensor_type;location;lat;lon;timestamp;P1;durP1;ratioP1;P2;durP2;ratioP2
3865;SDS011;1948;53.250;10.412;2022-08-19T00:01:57;18.30;;;11.43;;
3865;SDS011;1948;53.250;10.412;2022-08-19T00:04:27;15.10;;;11.70;;
3865;SDS011;1948;53.250;10.412;2022-08-19T00:07:03;17.07;;;11.60;;
3865;SDS011;1948;53.250;10.412;2022-08-19T00:09:32;22.37;;;11.27;;
3865;SDS011;1948;53.250;10.412;2022-08-19T00:11:59;14.07;;;10.57;;
3865;SDS011;1948;53.250;10.412;2022-08-19T00:14:27;24.67;;;11.50;;
3865;SDS011;1948;53.250;10.412;2022-08-19T00:16:58;14.30;;;10.40;;
3865;SDS011;1948;53.250;10.412;2022-08-19T00:19:25;21.93;;;11.50;;
3865;SDS011;1948;53.250;10.412;2022-08-19T00:21:55;17.70;;;11.47;;
3865;SDS011;1948;53.250;10.412;2022-08-19T00:24:24;17.03;;;10.70;;
3865;SDS011;1948;53.250;10.412;2022-08-19T00:26:52;25.73;;;11.90;;
3865;SDS011;1948;53.250;10.412;2022-08-19T00:29:42;17.07;;;10.53;;
3865;SDS011;1948;53.250;10.412;2022-08-19T00:32:10;14.00;;;9.60;;
3865;SDS011;1948;53.250;10.412;2022-08-19T00:34:38;10.63;;;9.57;;
3865;SDS011;1948;53.250;10.412;2022-08-19T00:37:06;20.60;;;9.53;;
3865;SDS011;1948;53.250;10.412;2022-08-19T00:39:38;16.17;;;9.40;;
3865;SDS011;1948;53.250;10.412;2022-08-19T00:42:08;26.63;;;10.10;;
3865;SDS011;1948;53.250;10.412;2022-08-19T00:44:37;12.10;;;9.67;;
3865;SDS011;1948;53.250;10.412;2022-08-19T00:47:04;14.27;;;10.07;;
3865;SDS011;1948;53.250;10.412;2022-08-19T00:49:47;13.27;;;9.60;;
3865;SDS011;1948;53.250;10.412;2022-08-19T00:52:22;15.53;;;9.97;;
3865;SDS011;1948;53.250;10.412;2022-08-19T00:54:56;13.40;;;10.00;;
3865;SDS011;1948;53.250;10.412;2022-08-19T00:57:29;19.13;;;10.07;;
3865;SDS011;1948;53.250;10.412;2022-08-19T01:00:06;20.40;;;11.00;;
3865;SDS011;1948;53.250;10.412;2022-08-19T01:02:38;15.93;;;10.00;;
3865;SDS011;1948;53.250;10.412;2022-08-19T01:05:08;20.20;;;10.73;;
3865;SDS011;1948;53.250;10.412;2022-08-19T01:07:38;15.60;;;9.80;;
3865;SDS011;1948;53.250;10.412;2022-08-19T01:10:11;11.23;;;9.90;;
3865;SDS011;1948;53.250;10.412;2022-08-19T01:12:47;15.97;;;10.10;;
3865;SDS011;1948;53.250;10.412;2022-08-19T01:15:18;15.80;;;10.37;;
3865;SDS011;1948;53.250;10.412;2022-08-19T01:17:50;18.70;;;10.80;;
3865;SDS011;1948;53.250;10.412;2022-08-19T01:20:20;11.10;;;9.97;;
3865;SDS011;1948;53.250;10.412;2022-08-19T01:22:53;21.87;;;10.50;;
3865;SDS011;1948;53.250;10.412;2022-08-19T01:25:27;13.63;;;10.27;;
3865;SDS011;1948;53.250;10.412;2022-08-19T01:28:04;14.80;;;10.83;;
3865;SDS011;1948;53.250;10.412;2022-08-19T01:30:36;15.67;;;11.70;;
3865;SDS011;1948;53.250;10.412;2022-08-19T01:33:16;10.07;;;8.73;;
3865;SDS011;1948;53.250;10.412;2022-08-19T01:35:43;14.13;;;10.63;;
3865;SDS011;1948;53.250;10.412;2022-08-19T01:38:18;15.17;;;9.50;;
3865;SDS011;1948;53.250;10.412;2022-08-19T01:40:50;18.43;;;11.20;;
3865;SDS011;1948;53.250;10.412;2022-08-19T01:43:20;15.40;;;11.20;;
3865;SDS011;1948;53.250;10.412;2022-08-19T01:45:47;14.03;;;11.50;;
3865;SDS011;1948;53.250;10.412;2022-08-19T01:48:17;15.60;;;11.10;;
3865;SDS011;1948;53.250;10.412;2022-08-19T01:50:46;13.57;;;10.97;;
3865;SDS011;1948;53.250;10.412;2022-08-19T01:53:18;15.93;;;11.00;;
3865;SDS011;1948;53.250;10.412;2022-08-19T01:55:46;17.00;;;11.47;;
3865;SDS011;1948;53.250;10.412;2022-08-19T01:58:17;19.67;;;11.60;;
3865;SDS011;1948;53.250;10.412;2022-08-19T02:00:50;15.63;;;11.17;;
3865;SDS011;1948;53.250;10.412;2022-08-19T02:03:17;23.97;;;11.60;;
3865;SDS011;1948;53.250;10.412;2022-08-19T02:05:53;17.87;;;11.43;;
3865;SDS011;1948;53.250;10.412;2022-08-19T02:08:22;14.43;;;11.27;;
3865;SDS011;1948;53.250;10.412;2022-08-19T02:10:52;11.93;;;10.60;;
3865;SDS011;1948;53.250;10.412;2022-08-19T02:13:19;18.80;;;10.33;;
3865;SDS011;1948;53.250;10.412;2022-08-19T02:15:51;14.83;;;10.10;;
3865;SDS011;1948;53.250;10.412;2022-08-19T02:18:18;11.97;;;10.77;;
3865;SDS011;1948;53.250;10.412;2022-08-19T02:20:53;13.63;;;10.97;;
3865;SDS011;1948;53.250;10.412;2022-08-19T02:23:20;22.30;;;11.30;;
3865;SDS011;1948;53.250;10.412;2022-08-19T02:25:47;16.13;;;9.53;;
3865;SDS011;1948;53.250;10.412;2022-08-19T02:28:14;15.30;;;11.00;;
3865;SDS011;1948;53.250;10.412;2022-08-19T02:30:47;12.37;;;11.10;;
3865;SDS011;1948;53.250;10.412;2022-08-19T02:33:18;12.60;;;10.30;;
3865;SDS011;1948;53.250;10.412;2022-08-19T02:35:48;14.23;;;10.30;;
3865;SDS011;1948;53.250;10.412;2022-08-19T02:38:16;12.13;;;10.00;;
3865;SDS011;1948;53.250;10.412;2022-08-19T02:40:55;15.13;;;10.83;;
3865;SDS011;1948;53.250;10.412;2022-08-19T02:43:26;16.60;;;9.93;;
3865;SDS011;1948;53.250;10.412;2022-08-19T02:45:59;16.03;;;10.23;;
3865;SDS011;1948;53.250;10.412;2022-08-19T02:48:38;11.13;;;9.67;;
3865;SDS011;1948;53.250;10.412;2022-08-19T02:51:04;16.13;;;10.23;;
3865;SDS011;1948;53.250;10.412;2022-08-19T02:53:36;18.83;;;10.60;;
3865;SDS011;1948;53.250;10.412;2022-08-19T02:56:06;14.73;;;10.30;;
3865;SDS011;1948;53.250;10.412;2022-08-19T02:58:36;11.10;;;9.50;;
3865;SDS011;1948;53.250;10.412;2022-08-19T03:01:03;15.57;;;10.77;;
3865;SDS011;1948;53.250;10.412;2022-08-19T03:03:30;17.20;;;11.60;;
3865;SDS011;1948;53.250;10.412;2022-08-19T03:08:34;17.30;;;12.37;;
3865;SDS011;1948;53.250;10.412;2022-08-19T03:11:04;18.70;;;12.10;;
3865;SDS011;1948;53.250;10.412;2022-08-19T03:13:34;20.13;;;11.70;;
3865;SDS011;1948;53.250;10.412;2022-08-19T03:16:04;18.93;;;13.20;;
3865;SDS011;1948;53.250;10.412;2022-08-19T03:18:31;21.63;;;12.70;;
3865;SDS011;1948;53.250;10.412;2022-08-19T03:21:00;27.43;;;13.60;;
3865;SDS011;1948;53.250;10.412;2022-08-19T03:23:27;34.03;;;15.23;;
3865;SDS011;1948;53.250;10.412;2022-08-19T03:25:54;27.30;;;15.30;;
3865;SDS011;1948;53.250;10.412;2022-08-19T03:28:41;32.83;;;17.60;;
3865;SDS011;1948;53.250;10.412;2022-08-19T03:31:18;27.93;;;17.80;;
3865;SDS011;1948;53.250;10.412;2022-08-19T03:34:16;45.47;;;18.70;;
3865;SDS011;1948;53.250;10.412;2022-08-19T03:36:52;33.67;;;20.40;;
3865;SDS011;1948;53.250;10.412;2022-08-19T03:39:24;31.07;;;19.37;;
3865;SDS011;1948;53.250;10.412;2022-08-19T03:41:53;37.20;;;18.50;;
3865;SDS011;1948;53.250;10.412;2022-08-19T03:44:43;29.50;;;17.83;;
3865;SDS011;1948;53.250;10.412;2022-08-19T03:47:13;35.30;;;19.27;;
3865;SDS011;1948;53.250;10.412;2022-08-19T03:49:42;32.57;;;19.07;;
3865;SDS011;1948;53.250;10.412;2022-08-19T03:52:12;36.17;;;19.50;;
3865;SDS011;1948;53.250;10.412;2022-08-19T03:54:40;37.27;;;18.93;;
3865;SDS011;1948;53.250;10.412;2022-08-19T03:57:08;31.07;;;17.83;;
3865;SDS011;1948;53.250;10.412;2022-08-19T03:59:35;32.37;;;18.97;;
3865;SDS011;1948;53.250;10.412;2022-08-19T04:02:08;41.00;;;18.57;;
3865;SDS011;1948;53.250;10.412;2022-08-19T04:04:41;24.70;;;17.00;;
3865;SDS011;1948;53.250;10.412;2022-08-19T04:07:12;29.87;;;16.60;;
3865;SDS011;1948;53.250;10.412;2022-08-19T04:09:44;22.60;;;14.93;;
3865;SDS011;1948;53.250;10.412;2022-08-19T04:12:11;22.17;;;15.17;;
3865;SDS011;1948;53.250;10.412;2022-08-19T04:14:38;25.70;;;14.33;;
3865;SDS011;1948;53.250;10.412;2022-08-19T04:17:08;24.40;;;13.50;;
3865;SDS011;1948;53.250;10.412;2022-08-19T04:19:35;20.63;;;13.23;;
3865;SDS011;1948;53.250;10.412;2022-08-19T04:22:03;25.80;;;13.80;;
3865;SDS011;1948;53.250;10.412;2022-08-19T04:24:33;23.37;;;14.27;;
3865;SDS011;1948;53.250;10.412;2022-08-19T04:27:04;23.57;;;13.60;;
3865;SDS011;1948;53.250;10.412;2022-08-19T04:29:32;28.57;;;13.53;;
3865;SDS011;1948;53.250;10.412;2022-08-19T04:32:00;22.73;;;12.40;;
3865;SDS011;1948;53.250;10.412;2022-08-19T04:34:34;16.20;;;11.93;;
3865;SDS011;1948;53.250;10.412;2022-08-19T04:37:24;24.23;;;12.53;;
3865;SDS011;1948;53.250;10.412;2022-08-19T04:40:00;35.33;;;15.87;;
3865;SDS011;1948;53.250;10.412;2022-08-19T04:42:46;39.33;;;19.93;;
3865;SDS011;1948;53.250;10.412;2022-08-19T04:45:14;28.93;;;16.37;;
3865;SDS011;1948;53.250;10.412;2022-08-19T04:47:43;59.50;;;30.20;;
3865;SDS011;1948;53.250;10.412;2022-08-19T04:50:24;51.97;;;22.50;;
3865;SDS011;1948;53.250;10.412;2022-08-19T04:52:52;42.53;;;23.00;;
3865;SDS011;1948;53.250;10.412;2022-08-19T04:55:24;64.50;;;27.80;;
3865;SDS011;1948;53.250;10.412;2022-08-19T04:57:56;40.87;;;20.97;;
3865;SDS011;1948;53.250;10.412;2022-08-19T05:00:26;53.20;;;19.43;;
3865;SDS011;1948;53.250;10.412;2022-08-19T05:02:53;42.20;;;17.70;;
3865;SDS011;1948;53.250;10.412;2022-08-19T05:05:22;28.90;;;16.13;;
3865;SDS011;1948;53.250;10.412;2022-08-19T05:07:54;41.10;;;17.90;;
3865;SDS011;1948;53.250;10.412;2022-08-19T05:10:24;36.63;;;18.87;;
3865;SDS011;1948;53.250;10.412;2022-08-19T05:12:53;28.80;;;15.93;;
3865;SDS011;1948;53.250;10.412;2022-08-19T05:15:23;28.20;;;14.80;;
3865;SDS011;1948;53.250;10.412;2022-08-19T05:17:54;28.60;;;15.90;;
3865;SDS011;1948;53.250;10.412;2022-08-19T05:20:40;24.53;;;14.63;;
3865;SDS011;1948;53.250;10.412;2022-08-19T05:23:25;28.43;;;14.97;;
3865;SDS011;1948;53.250;10.412;2022-08-19T05:25:57;33.50;;;12.93;;
3865;SDS011;1948;53.250;10.412;2022-08-19T05:28:23;34.57;;;13.93;;
3865;SDS011;1948;53.250;10.412;2022-08-19T05:30:50;30.13;;;16.00;;
3865;SDS011;1948;53.250;10.412;2022-08-19T05:33:22;29.00;;;16.13;;
3865;SDS011;1948;53.250;10.412;2022-08-19T05:35:50;31.97;;;15.37;;
3865;SDS011;1948;53.250;10.412;2022-08-19T05:38:17;29.80;;;15.50;;
3865;SDS011;1948;53.250;10.412;2022-08-19T05:40:47;27.80;;;15.10;;
3865;SDS011;1948;53.250;10.412;2022-08-19T05:43:14;29.03;;;15.00;;
3865;SDS011;1948;53.250;10.412;2022-08-19T05:45:43;29.50;;;14.90;;
3865;SDS011;1948;53.250;10.412;2022-08-19T05:48:13;27.50;;;15.20;;
3865;SDS011;1948;53.250;10.412;2022-08-19T05:50:40;31.77;;;14.37;;
3865;SDS011;1948;53.250;10.412;2022-08-19T05:53:10;37.30;;;17.20;;
3865;SDS011;1948;53.250;10.412;2022-08-19T05:55:38;27.00;;;14.73;;
3865;SDS011;1948;53.250;10.412;2022-08-19T05:58:08;26.47;;;14.53;;
3865;SDS011;1948;53.250;10.412;2022-08-19T06:00:35;34.20;;;16.50;;
3865;SDS011;1948;53.250;10.412;2022-08-19T06:03:05;28.00;;;15.50;;
3865;SDS011;1948;53.250;10.412;2022-08-19T06:05:38;37.13;;;16.60;;
3865;SDS011;1948;53.250;10.412;2022-08-19T06:08:19;33.33;;;15.63;;
3865;SDS011;1948;53.250;10.412;2022-08-19T06:11:11;43.10;;;18.53;;
3865;SDS011;1948;53.250;10.412;2022-08-19T06:13:50;35.30;;;17.73;;
3865;SDS011;1948;53.250;10.412;2022-08-19T06:16:26;37.00;;;18.10;;
3865;SDS011;1948;53.250;10.412;2022-08-19T06:18:54;52.50;;;19.73;;
3865;SDS011;1948;53.250;10.412;2022-08-19T06:21:27;30.30;;;19.20;;
3865;SDS011;1948;53.250;10.412;2022-08-19T06:23:56;33.70;;;18.53;;
3865;SDS011;1948;53.250;10.412;2022-08-19T06:26:26;47.30;;;19.40;;
3865;SDS011;1948;53.250;10.412;2022-08-19T06:28:53;39.67;;;18.57;;
3865;SDS011;1948;53.250;10.412;2022-08-19T06:31:27;39.13;;;22.73;;
3865;SDS011;1948;53.250;10.412;2022-08-19T06:33:55;46.13;;;24.87;;
3865;SDS011;1948;53.250;10.412;2022-08-19T06:36:23;64.50;;;28.20;;
3865;SDS011;1948;53.250;10.412;2022-08-19T06:38:58;55.63;;;28.67;;
3865;SDS011;1948;53.250;10.412;2022-08-19T06:41:34;75.97;;;31.00;;
3865;SDS011;1948;53.250;10.412;2022-08-19T06:44:12;64.47;;;32.10;;
3865;SDS011;1948;53.250;10.412;2022-08-19T06:46:45;59.97;;;32.50;;
3865;SDS011;1948;53.250;10.412;2022-08-19T06:49:20;69.37;;;35.43;;
3865;SDS011;1948;53.250;10.412;2022-08-19T06:51:57;69.33;;;34.60;;
3865;SDS011;1948;53.250;10.412;2022-08-19T06:54:27;63.90;;;34.00;;
3865;SDS011;1948;53.250;10.412;2022-08-19T06:56:58;65.47;;;33.07;;
3865;SDS011;1948;53.250;10.412;2022-08-19T06:59:32;62.20;;;32.20;;
3865;SDS011;1948;53.250;10.412;2022-08-19T07:02:01;61.20;;;33.30;;
3865;SDS011;1948;53.250;10.412;2022-08-19T07:04:33;49.77;;;29.77;;
3865;SDS011;1948;53.250;10.412;2022-08-19T07:07:08;59.20;;;30.60;;
3865;SDS011;1948;53.250;10.412;2022-08-19T07:09:46;55.67;;;31.53;;
3865;SDS011;1948;53.250;10.412;2022-08-19T07:12:25;52.70;;;31.97;;
3865;SDS011;1948;53.250;10.412;2022-08-19T07:14:56;59.50;;;32.60;;
3865;SDS011;1948;53.250;10.412;2022-08-19T07:17:24;49.13;;;29.83;;
3865;SDS011;1948;53.250;10.412;2022-08-19T07:19:52;57.40;;;30.47;;
3865;SDS011;1948;53.250;10.412;2022-08-19T07:22:20;52.93;;;31.87;;
3865;SDS011;1948;53.250;10.412;2022-08-19T07:24:51;63.87;;;31.67;;
3865;SDS011;1948;53.250;10.412;2022-08-19T07:27:20;52.83;;;31.10;;
3865;SDS011;1948;53.250;10.412;2022-08-19T07:29:52;57.23;;;32.47;;
3865;SDS011;1948;53.250;10.412;2022-08-19T07:32:23;58.20;;;31.80;;
3865;SDS011;1948;53.250;10.412;2022-08-19T07:34:53;62.33;;;33.53;;
3865;SDS011;1948;53.250;10.412;2022-08-19T07:37:21;61.50;;;35.37;;
3865;SDS011;1948;53.250;10.412;2022-08-19T07:40:01;64.83;;;34.07;;
3865;SDS011;1948;53.250;10.412;2022-08-19T07:42:32;82.60;;;34.83;;
3865;SDS011;1948;53.250;10.412;2022-08-19T07:45:04;75.33;;;35.63;;
3865;SDS011;1948;53.250;10.412;2022-08-19T07:47:36;73.70;;;36.90;;
3865;SDS011;1948;53.250;10.412;2022-08-19T07:50:26;69.23;;;36.87;;
3865;SDS011;1948;53.250;10.412;2022-08-19T07:52:56;69.80;;;34.67;;
3865;SDS011;1948;53.250;10.412;2022-08-19T07:55:28;67.47;;;36.00;;
3865;SDS011;1948;53.250;10.412;2022-08-19T07:58:08;67.53;;;37.77;;
3865;SDS011;1948;53.250;10.412;2022-08-19T08:00:40;75.13;;;37.80;;
3865;SDS011;1948;53.250;10.412;2022-08-19T08:03:11;75.77;;;37.83;;
3865;SDS011;1948;53.250;10.412;2022-08-19T08:05:39;73.77;;;40.10;;
3865;SDS011;1948;53.250;10.412;2022-08-19T08:08:27;95.17;;;38.90;;
3865;SDS011;1948;53.250;10.412;2022-08-19T08:11:14;85.77;;;40.63;;
3865;SDS011;1948;53.250;10.412;2022-08-19T08:13:45;79.70;;;38.80;;
3865;SDS011;1948;53.250;10.412;2022-08-19T08:16:30;77.47;;;40.00;;
3865;SDS011;1948;53.250;10.412;2022-08-19T08:19:05;85.20;;;41.73;;
3865;SDS011;1948;53.250;10.412;2022-08-19T08:21:46;79.70;;;38.97;;
3865;SDS011;1948;53.250;10.412;2022-08-19T08:24:14;94.30;;;42.10;;
3865;SDS011;1948;53.250;10.412;2022-08-19T08:26:42;90.60;;;40.43;;
3865;SDS011;1948;53.250;10.412;2022-08-19T08:29:14;80.40;;;43.10;;
3865;SDS011;1948;53.250;10.412;2022-08-19T08:31:43;96.90;;;42.10;;
3865;SDS011;1948;53.250;10.412;2022-08-19T08:34:12;83.97;;;42.43;;
3865;SDS011;1948;53.250;10.412;2022-08-19T08:36:44;90.50;;;42.43;;
3865;SDS011;1948;53.250;10.412;2022-08-19T08:39:13;91.40;;;40.47;;
3865;SDS011;1948;53.250;10.412;2022-08-19T08:47:30;77.23;;;40.50;;
3865;SDS011;1948;53.250;10.412;2022-08-19T08:52:46;67.23;;;35.97;;
3865;SDS011;1948;53.250;10.412;2022-08-19T08:55:20;82.57;;;37.23;;
3865;SDS011;1948;53.250;10.412;2022-08-19T08:58:16;82.63;;;38.57;;
3865;SDS011;1948;53.250;10.412;2022-08-19T09:01:26;82.03;;;37.40;;
3865;SDS011;1948;53.250;10.412;2022-08-19T09:03:56;76.13;;;35.67;;
3865;SDS011;1948;53.250;10.412;2022-08-19T09:09:54;75.97;;;35.87;;
3865;SDS011;1948;53.250;10.412;2022-08-19T09:13:20;77.80;;;34.63;;
3865;SDS011;1948;53.250;10.412;2022-08-19T09:16:10;75.00;;;33.80;;
3865;SDS011;1948;53.250;10.412;2022-08-19T09:18:54;69.13;;;32.53;;
3865;SDS011;1948;53.250;10.412;2022-08-19T09:21:27;82.03;;;32.70;;
3865;SDS011;1948;53.250;10.412;2022-08-19T09:23:58;78.97;;;33.27;;
3865;SDS011;1948;53.250;10.412;2022-08-19T09:26:28;76.97;;;34.07;;
3865;SDS011;1948;53.250;10.412;2022-08-19T09:29:17;66.97;;;30.80;;
3865;SDS011;1948;53.250;10.412;2022-08-19T09:31:50;59.27;;;29.07;;
3865;SDS011;1948;53.250;10.412;2022-08-19T09:34:17;61.63;;;27.87;;
3865;SDS011;1948;53.250;10.412;2022-08-19T09:36:49;73.70;;;32.17;;
3865;SDS011;1948;53.250;10.412;2022-08-19T09:39:20;57.10;;;29.80;;
3865;SDS011;1948;53.250;10.412;2022-08-19T09:41:47;68.53;;;29.60;;
3865;SDS011;1948;53.250;10.412;2022-08-19T09:44:16;54.37;;;27.90;;
3865;SDS011;1948;53.250;10.412;2022-08-19T09:46:52;46.80;;;26.17;;
3865;SDS011;1948;53.250;10.412;2022-08-19T09:49:23;64.97;;;28.33;;
3865;SDS011;1948;53.250;10.412;2022-08-19T09:51:55;53.40;;;26.60;;
3865;SDS011;1948;53.250;10.412;2022-08-19T09:54:26;53.40;;;27.27;;
3865;SDS011;1948;53.250;10.412;2022-08-19T09:56:54;55.90;;;26.10;;
3865;SDS011;1948;53.250;10.412;2022-08-19T09:59:24;59.80;;;25.90;;
3865;SDS011;1948;53.250;10.412;2022-08-19T10:02:00;52.83;;;27.90;;
3865;SDS011;1948;53.250;10.412;2022-08-19T10:04:35;73.30;;;29.03;;
3865;SDS011;1948;53.250;10.412;2022-08-19T10:07:23;52.10;;;27.30;;
3865;SDS011;1948;53.250;10.412;2022-08-19T10:10:03;54.90;;;27.50;;
3865;SDS011;1948;53.250;10.412;2022-08-19T10:12:35;53.40;;;26.87;;
3865;SDS011;1948;53.250;10.412;2022-08-19T10:15:05;56.10;;;26.73;;
3865;SDS011;1948;53.250;10.412;2022-08-19T10:17:33;63.63;;;29.30;;
3865;SDS011;1948;53.250;10.412;2022-08-19T10:20:02;76.87;;;28.97;;
3865;SDS011;1948;53.250;10.412;2022-08-19T10:22:30;64.60;;;29.80;;
3865;SDS011;1948;53.250;10.412;2022-08-19T10:25:01;52.77;;;27.73;;
3865;SDS011;1948;53.250;10.412;2022-08-19T10:27:37;62.23;;;29.33;;
3865;SDS011;1948;53.250;10.412;2022-08-19T10:30:05;66.03;;;28.60;;
3865;SDS011;1948;53.250;10.412;2022-08-19T10:32:35;55.30;;;28.50;;
3865;SDS011;1948;53.250;10.412;2022-08-19T10:35:03;57.83;;;28.93;;
3865;SDS011;1948;53.250;10.412;2022-08-19T10:37:36;61.37;;;30.20;;
3865;SDS011;1948;53.250;10.412;2022-08-19T10:40:22;70.00;;;33.17;;
3865;SDS011;1948;53.250;10.412;2022-08-19T10:42:49;68.40;;;31.00;;
3865;SDS011;1948;53.250;10.412;2022-08-19T10:45:16;67.97;;;32.73;;
3865;SDS011;1948;53.250;10.412;2022-08-19T10:47:50;76.03;;;37.00;;
3865;SDS011;1948;53.250;10.412;2022-08-19T10:50:19;78.00;;;35.83;;
3865;SDS011;1948;53.250;10.412;2022-08-19T10:53:07;74.97;;;33.10;;
3865;SDS011;1948;53.250;10.412;2022-08-19T10:55:35;63.67;;;31.63;;
3865;SDS011;1948;53.250;10.412;2022-08-19T10:58:21;74.03;;;33.53;;
3865;SDS011;1948;53.250;10.412;2022-08-19T11:00:53;69.80;;;34.10;;
3865;SDS011;1948;53.250;10.412;2022-08-19T11:03:25;61.47;;;33.27;;
3865;SDS011;1948;53.250;10.412;2022-08-19T11:05:59;78.13;;;35.07;;
3865;SDS011;1948;53.250;10.412;2022-08-19T11:08:28;59.47;;;34.70;;
3865;SDS011;1948;53.250;10.412;2022-08-19T11:10:58;78.77;;;38.53;;
3865;SDS011;1948;53.250;10.412;2022-08-19T11:13:28;77.37;;;37.67;;
3865;SDS011;1948;53.250;10.412;2022-08-19T11:16:02;85.60;;;39.40;;
3865;SDS011;1948;53.250;10.412;2022-08-19T11:18:38;73.37;;;38.10;;
3865;SDS011;1948;53.250;10.412;2022-08-19T11:21:16;71.23;;;37.90;;
3865;SDS011;1948;53.250;10.412;2022-08-19T11:24:05;80.47;;;37.33;;
3865;SDS011;1948;53.250;10.412;2022-08-19T11:26:37;92.43;;;38.90;;
3865;SDS011;1948;53.250;10.412;2022-08-19T11:29:09;90.53;;;38.60;;
3865;SDS011;1948;53.250;10.412;2022-08-19T11:31:44;71.23;;;36.80;;
3865;SDS011;1948;53.250;10.412;2022-08-19T11:34:18;70.40;;;37.70;;
3865;SDS011;1948;53.250;10.412;2022-08-19T11:36:53;63.07;;;34.57;;
3865;SDS011;1948;53.250;10.412;2022-08-19T11:39:25;69.67;;;33.20;;
3865;SDS011;1948;53.250;10.412;2022-08-19T11:41:54;62.77;;;33.87;;
3865;SDS011;1948;53.250;10.412;2022-08-19T11:44:23;69.47;;;34.90;;
3865;SDS011;1948;53.250;10.412;2022-08-19T11:46:50;78.87;;;37.50;;
3865;SDS011;1948;53.250;10.412;2022-08-19T11:49:19;77.87;;;35.70;;
3865;SDS011;1948;53.250;10.412;2022-08-19T11:51:47;62.03;;;35.40;;
3865;SDS011;1948;53.250;10.412;2022-08-19T11:54:18;72.33;;;36.00;;
3865;SDS011;1948;53.250;10.412;2022-08-19T11:56:46;61.50;;;33.70;;
3865;SDS011;1948;53.250;10.412;2022-08-19T11:59:16;91.70;;;38.70;;
3865;SDS011;1948;53.250;10.412;2022-08-19T12:01:45;68.27;;;39.33;;
3865;SDS011;1948;53.250;10.412;2022-08-19T12:04:19;73.00;;;38.40;;
3865;SDS011;1948;53.250;10.412;2022-08-19T12:06:46;78.37;;;39.73;;
3865;SDS011;1948;53.250;10.412;2022-08-19T12:09:16;71.20;;;38.23;;
3865;SDS011;1948;53.250;10.412;2022-08-19T12:11:48;64.33;;;36.50;;
3865;SDS011;1948;53.250;10.412;2022-08-19T12:14:16;69.70;;;39.00;;
3865;SDS011;1948;53.250;10.412;2022-08-19T12:16:45;66.93;;;35.87;;
3865;SDS011;1948;53.250;10.412;2022-08-19T12:19:17;77.57;;;39.20;;
3865;SDS011;1948;53.250;10.412;2022-08-19T12:21:48;68.80;;;37.33;;
3865;SDS011;1948;53.250;10.412;2022-08-19T12:24:15;59.93;;;36.87;;
3865;SDS011;1948;53.250;10.412;2022-08-19T12:26:46;61.50;;;35.20;;
3865;SDS011;1948;53.250;10.412;2022-08-19T12:29:18;66.60;;;37.07;;
3865;SDS011;1948;53.250;10.412;2022-08-19T12:31:49;61.17;;;35.40;;
3865;SDS011;1948;53.250;10.412;2022-08-19T12:34:19;66.07;;;37.03;;
3865;SDS011;1948;53.250;10.412;2022-08-19T12:36:51;54.47;;;37.47;;
3865;SDS011;1948;53.250;10.412;2022-08-19T12:39:18;67.50;;;37.00;;
3865;SDS011;1948;53.250;10.412;2022-08-19T12:41:47;58.33;;;38.30;;
3865;SDS011;1948;53.250;10.412;2022-08-19T12:44:20;53.77;;;35.50;;
3865;SDS011;1948;53.250;10.412;2022-08-19T12:46:54;72.57;;;36.10;;
3865;SDS011;1948;53.250;10.412;2022-08-19T12:49:22;60.67;;;35.50;;
3865;SDS011;1948;53.250;10.412;2022-08-19T12:52:13;62.47;;;38.87;;
3865;SDS011;1948;53.250;10.412;2022-08-19T12:54:48;57.13;;;38.63;;
3865;SDS011;1948;53.250;10.412;2022-08-19T12:57:20;61.17;;;39.40;;
3865;SDS011;1948;53.250;10.412;2022-08-19T12:59:58;65.37;;;38.77;;
3865;SDS011;1948;53.250;10.412;2022-08-19T13:02:41;59.30;;;36.70;;
3865;SDS011;1948;53.250;10.412;2022-08-19T13:05:15;64.67;;;38.80;;
3865;SDS011;1948;53.250;10.412;2022-08-19T13:07:51;56.10;;;36.57;;
3865;SDS011;1948;53.250;10.412;2022-08-19T13:10:22;60.00;;;36.03;;
3865;SDS011;1948;53.250;10.412;2022-08-19T13:12:55;55.03;;;35.70;;
3865;SDS011;1948;53.250;10.412;2022-08-19T13:15:25;54.20;;;34.30;;
3865;SDS011;1948;53.250;10.412;2022-08-19T13:17:54;54.70;;;33.73;;
3865;SDS011;1948;53.250;10.412;2022-08-19T13:20:22;41.90;;;31.33;;
3865;SDS011;1948;53.250;10.412;2022-08-19T13:22:52;49.37;;;33.07;;
3865;SDS011;1948;53.250;10.412;2022-08-19T13:25:25;48.53;;;32.53;;
3865;SDS011;1948;53.250;10.412;2022-08-19T13:27:53;43.40;;;32.03;;
3865;SDS011;1948;53.250;10.412;2022-08-19T13:30:22;51.43;;;33.30;;
3865;SDS011;1948;53.250;10.412;2022-08-19T13:33:09;46.37;;;32.03;;
3865;SDS011;1948;53.250;10.412;2022-08-19T13:35:49;51.50;;;32.77;;
3865;SDS011;1948;53.250;10.412;2022-08-19T13:38:22;49.13;;;32.40;;
3865;SDS011;1948;53.250;10.412;2022-08-19T13:40:50;55.70;;;32.97;;
3865;SDS011;1948;53.250;10.412;2022-08-19T13:43:19;44.70;;;30.73;;
3865;SDS011;1948;53.250;10.412;2022-08-19T13:45:52;49.33;;;29.63;;
3865;SDS011;1948;53.250;10.412;2022-08-19T13:48:24;48.70;;;31.93;;
3865;SDS011;1948;53.250;10.412;2022-08-19T13:50:53;55.23;;;29.67;;
3865;SDS011;1948;53.250;10.412;2022-08-19T13:53:23;39.27;;;30.67;;
3865;SDS011;1948;53.250;10.412;2022-08-19T13:55:53;50.07;;;29.87;;
3865;SDS011;1948;53.250;10.412;2022-08-19T13:58:20;51.80;;;28.30;;
3865;SDS011;1948;53.250;10.412;2022-08-19T14:00:48;40.63;;;28.10;;
3865;SDS011;1948;53.250;10.412;2022-08-19T14:03:18;41.80;;;27.37;;
3865;SDS011;1948;53.250;10.412;2022-08-19T14:05:47;36.17;;;25.00;;
3865;SDS011;1948;53.250;10.412;2022-08-19T14:08:14;34.70;;;25.23;;
3865;SDS011;1948;53.250;10.412;2022-08-19T14:10:42;45.67;;;27.00;;
3865;SDS011;1948;53.250;10.412;2022-08-19T14:13:12;34.67;;;26.17;;
3865;SDS011;1948;53.250;10.412;2022-08-19T14:15:47;32.23;;;24.00;;
3865;SDS011;1948;53.250;10.412;2022-08-19T14:18:15;37.00;;;25.50;;
3865;SDS011;1948;53.250;10.412;2022-08-19T14:20:44;51.23;;;26.13;;
3865;SDS011;1948;53.250;10.412;2022-08-19T14:23:11;39.20;;;25.70;;
3865;SDS011;1948;53.250;10.412;2022-08-19T14:25:39;34.20;;;26.17;;
3865;SDS011;1948;53.250;10.412;2022-08-19T14:28:10;51.03;;;28.07;;
3865;SDS011;1948;53.250;10.412;2022-08-19T14:30:42;40.27;;;27.10;;
3865;SDS011;1948;53.250;10.412;2022-08-19T14:33:10;40.50;;;27.40;;
3865;SDS011;1948;53.250;10.412;2022-08-19T14:35:37;36.20;;;24.97;;
3865;SDS011;1948;53.250;10.412;2022-08-19T14:38:14;36.20;;;25.10;;
3865;SDS011;1948;53.250;10.412;2022-08-19T14:43:49;40.77;;;26.43;;
3865;SDS011;1948;53.250;10.412;2022-08-19T14:46:21;30.47;;;25.10;;
3865;SDS011;1948;53.250;10.412;2022-08-19T14:48:55;27.90;;;24.53;;
3865;SDS011;1948;53.250;10.412;2022-08-19T14:51:25;29.70;;;24.27;;
3865;SDS011;1948;53.250;10.412;2022-08-19T14:53:55;29.40;;;23.33;;
3865;SDS011;1948;53.250;10.412;2022-08-19T14:56:25;29.43;;;23.30;;
3865;SDS011;1948;53.250;10.412;2022-08-19T14:58:55;32.43;;;21.23;;
3865;SDS011;1948;53.250;10.412;2022-08-19T15:01:27;25.20;;;22.50;;
3865;SDS011;1948;53.250;10.412;2022-08-19T15:03:54;30.07;;;22.93;;
3865;SDS011;1948;53.250;10.412;2022-08-19T15:06:22;24.63;;;21.70;;
3865;SDS011;1948;53.250;10.412;2022-08-19T15:08:53;25.80;;;21.00;;
3865;SDS011;1948;53.250;10.412;2022-08-19T15:11:24;29.10;;;24.03;;
3865;SDS011;1948;53.250;10.412;2022-08-19T15:13:54;26.07;;;20.67;;
3865;SDS011;1948;53.250;10.412;2022-08-19T15:16:22;29.47;;;23.93;;
3865;SDS011;1948;53.250;10.412;2022-08-19T15:18:55;30.63;;;25.00;;
3865;SDS011;1948;53.250;10.412;2022-08-19T15:21:25;28.53;;;23.50;;
3865;SDS011;1948;53.250;10.412;2022-08-19T15:23:54;26.67;;;23.97;;